sensor_id;sensor_type;location;lat;lon;timestamp;temperature;humidity
56374;DHT22;58212;47.034;7.376;2023-04-15T00:02:15;8.60;99.90
56374;DHT22;58212;47.034;7.376;2023-04-15T00:04:43;8.70;99.90
56374;DHT22;58212;47.034;7.376;2023-04-15T00:07:10;8.70;99.90
56374;DHT22;58212;47.034;7.376;2023-04-15T00:09:39;8.70;99.90
56374;DHT22;58212;47.034;7.376;2023-04-15T00:12:32;8.70;99.90
56374;DHT22;58212;47.034;7.376;2023-04-15T00:15:00;8.70;99.90
56374;DHT22;58212;47.034;7.376;2023-04-15T00:17:27;8.90;99.90
56374;DHT22;58212;47.034;7.376;2023-04-15T00:19:54;9.00;99.90
56374;DHT22;58212;47.034;7.376;2023-04-15T00:22:21;9.00;99.90
56374;DHT22;58212;47.034;7.376;2023-04-15T00:24:49;8.90;99.90
56374;DHT22;58212;47.034;7.376;2023-04-15T00:27:16;9.00;99.90
56374;DHT22;58212;47.034;7.376;2023-04-15T00:29:43;8.90;99.90
56374;DHT22;58212;47.034;7.376;2023-04-15T00:32:10;8.90;99.90
56374;DHT22;58212;47.034;7.376;2023-04-15T00:34:39;8.90;99.90
56374;DHT22;58212;47.034;7.376;2023-04-15T00:37:07;8.90;99.90
56374;DHT22;58212;47.034;7.376;2023-04-15T00:39:34;8.90;99.90
56374;DHT22;58212;47.034;7.376;2023-04-15T00:42:03;8.90;99.90
56374;DHT22;58212;47.034;7.376;2023-04-15T00:44:30;9.00;99.90
56374;DHT22;58212;47.034;7.376;2023-04-15T00:46:58;9.10;99.90
56374;DHT22;58212;47.034;7.376;2023-04-15T00:49:26;9.10;99.90
56374;DHT22;58212;47.034;7.376;2023-04-15T00:51:56;8.90;99.90
56374;DHT22;58212;47.034;7.376;2023-04-15T00:54:23;8.90;99.90
56374;DHT22;58212;47.034;7.376;2023-04-15T00:56:50;8.80;99.90
56374;DHT22;58212;47.034;7.376;2023-04-15T00:59:19;8.70;99.90
56374;DHT22;58212;47.034;7.376;2023-04-15T01:01:46;8.70;99.90
56374;DHT22;58212;47.034;7.376;2023-04-15T01:04:15;8.90;99.90
56374;DHT22;58212;47.034;7.376;2023-04-15T01:06:42;8.80;99.90
56374;DHT22;58212;47.034;7.376;2023-04-15T01:09:09;8.70;99.90
56374;DHT22;58212;47.034;7.376;2023-04-15T01:11:38;8.60;99.90
56374;DHT22;58212;47.034;7.376;2023-04-15T01:14:08;8.70;99.90
56374;DHT22;58212;47.034;7.376;2023-04-15T01:16:38;8.70;99.90
56374;DHT22;58212;47.034;7.376;2023-04-15T01:19:07;8.70;99.90
56374;DHT22;58212;47.034;7.376;2023-04-15T01:21:36;8.60;99.90
56374;DHT22;58212;47.034;7.376;2023-04-15T01:24:08;8.70;99.90
56374;DHT22;58212;47.034;7.376;2023-04-15T01:26:37;8.60;99.90
56374;DHT22;58212;47.034;7.376;2023-04-15T01:29:07;8.60;99.90
56374;DHT22;58212;47.034;7.376;2023-04-15T01:31:34;8.60;99.90
56374;DHT22;58212;47.034;7.376;2023-04-15T01:34:01;8.60;99.90
56374;DHT22;58212;47.034;7.376;2023-04-15T01:36:28;8.60;99.90
56374;DHT22;58212;47.034;7.376;2023-04-15T01:38:56;8.50;99.90
56374;DHT22;58212;47.034;7.376;2023-04-15T01:41:24;8.60;99.90
56374;DHT22;58212;47.034;7.376;2023-04-15T01:43:54;8.70;99.90
56374;DHT22;58212;47.034;7.376;2023-04-15T01:46:21;8.50;99.90
56374;DHT22;58212;47.034;7.376;2023-04-15T01:48:48;8.60;99.90
56374;DHT22;58212;47.034;7.376;2023-04-15T01:51:15;8.70;99.90
56374;DHT22;58212;47.034;7.376;2023-04-15T01:53:43;8.70;99.90
56374;DHT22;58212;47.034;7.376;2023-04-15T01:56:34;8.70;99.90
56374;DHT22;58212;47.034;7.376;2023-04-15T01:59:04;8.80;99.90
56374;DHT22;58212;47.034;7.376;2023-04-15T02:01:30;8.60;99.90
56374;DHT22;58212;47.034;7.376;2023-04-15T02:03:58;8.70;99.90
56374;DHT22;58212;47.034;7.376;2023-04-15T02:06:25;8.70;99.90
56374;DHT22;58212;47.034;7.376;2023-04-15T02:08:54;8.70;99.90
56374;DHT22;58212;47.034;7.376;2023-04-15T02:11:21;8.80;99.90
56374;DHT22;58212;47.034;7.376;2023-04-15T02:13:49;8.80;99.90
56374;DHT22;58212;47.034;7.376;2023-04-15T02:16:19;8.70;99.90
56374;DHT22;58212;47.034;7.376;2023-04-15T02:18:46;8.70;99.90
56374;DHT22;58212;47.034;7.376;2023-04-15T02:21:13;8.70;99.90
56374;DHT22;58212;47.034;7.376;2023-04-15T02:23:40;8.70;99.90
56374;DHT22;58212;47.034;7.376;2023-04-15T02:26:12;8.70;99.90
56374;DHT22;58212;47.034;7.376;2023-04-15T02:28:39;8.70;99.90
56374;DHT22;58212;47.034;7.376;2023-04-15T02:31:06;8.60;99.90
56374;DHT22;58212;47.034;7.376;2023-04-15T02:33:35;8.60;99.90
56374;DHT22;58212;47.034;7.376;2023-04-15T02:36:03;8.50;99.90
56374;DHT22;58212;47.034;7.376;2023-04-15T02:38:29;8.80;99.90
56374;DHT22;58212;47.034;7.376;2023-04-15T02:40:56;8.80;99.90
56374;DHT22;58212;47.034;7.376;2023-04-15T02:43:23;8.80;99.90
56374;DHT22;58212;47.034;7.376;2023-04-15T02:45:54;8.70;99.90
56374;DHT22;58212;47.034;7.376;2023-04-15T02:48:21;8.80;99.90
56374;DHT22;58212;47.034;7.376;2023-04-15T02:50:49;8.90;99.90
56374;DHT22;58212;47.034;7.376;2023-04-15T02:53:16;9.00;99.90
56374;DHT22;58212;47.034;7.376;2023-04-15T02:55:44;8.90;99.90
56374;DHT22;58212;47.034;7.376;2023-04-15T02:58:11;8.90;99.90
56374;DHT22;58212;47.034;7.376;2023-04-15T03:00:39;8.80;99.90
56374;DHT22;58212;47.034;7.376;2023-04-15T03:03:06;8.80;99.90
56374;DHT22;58212;47.034;7.376;2023-04-15T03:05:34;8.70;99.90
56374;DHT22;58212;47.034;7.376;2023-04-15T03:08:04;8.70;99.90
56374;DHT22;58212;47.034;7.376;2023-04-15T03:10:32;8.60;99.90
56374;DHT22;58212;47.034;7.376;2023-04-15T03:13:00;8.30;99.90
56374;DHT22;58212;47.034;7.376;2023-04-15T03:15:27;8.30;99.90
56374;DHT22;58212;47.034;7.376;2023-04-15T03:17:54;8.30;99.90
56374;DHT22;58212;47.034;7.376;2023-04-15T03:20:21;8.30;99.90
56374;DHT22;58212;47.034;7.376;2023-04-15T03:22:48;8.10;99.90
56374;DHT22;58212;47.034;7.376;2023-04-15T03:25:17;8.10;99.90
56374;DHT22;58212;47.034;7.376;2023-04-15T03:27:44;8.20;99.90
56374;DHT22;58212;47.034;7.376;2023-04-15T03:30:12;8.10;99.90
56374;DHT22;58212;47.034;7.376;2023-04-15T03:32:40;7.90;99.90
56374;DHT22;58212;47.034;7.376;2023-04-15T03:35:08;8.10;99.90
56374;DHT22;58212;47.034;7.376;2023-04-15T03:37:35;8.30;99.90
56374;DHT22;58212;47.034;7.376;2023-04-15T03:40:03;8.10;99.90
56374;DHT22;58212;47.034;7.376;2023-04-15T03:42:31;8.20;99.90
56374;DHT22;58212;47.034;7.376;2023-04-15T03:44:59;8.20;99.90
56374;DHT22;58212;47.034;7.376;2023-04-15T03:47:26;8.10;99.90
56374;DHT22;58212;47.034;7.376;2023-04-15T03:49:53;8.10;99.90
56374;DHT22;58212;47.034;7.376;2023-04-15T03:52:20;8.00;99.90
56374;DHT22;58212;47.034;7.376;2023-04-15T03:54:47;7.80;99.90
56374;DHT22;58212;47.034;7.376;2023-04-15T03:57:13;7.80;99.90
56374;DHT22;58212;47.034;7.376;2023-04-15T03:59:42;7.80;99.90
56374;DHT22;58212;47.034;7.376;2023-04-15T04:02:09;7.80;99.90
56374;DHT22;58212;47.034;7.376;2023-04-15T04:04:36;7.90;99.90
56374;DHT22;58212;47.034;7.376;2023-04-15T04:07:03;7.90;99.90
56374;DHT22;58212;47.034;7.376;2023-04-15T04:09:30;7.90;99.90
56374;DHT22;58212;47.034;7.376;2023-04-15T04:11:56;7.90;99.90
56374;DHT22;58212;47.034;7.376;2023-04-15T04:14:24;7.90;99.90
56374;DHT22;58212;47.034;7.376;2023-04-15T04:16:55;7.90;99.90
56374;DHT22;58212;47.034;7.376;2023-04-15T04:19:22;7.90;99.90
56374;DHT22;58212;47.034;7.376;2023-04-15T04:21:50;8.00;99.90
56374;DHT22;58212;47.034;7.376;2023-04-15T04:24:18;7.90;99.90
56374;DHT22;58212;47.034;7.376;2023-04-15T04:26:45;8.00;99.90
56374;DHT22;58212;47.034;7.376;2023-04-15T04:29:11;8.00;99.90
56374;DHT22;58212;47.034;7.376;2023-04-15T04:31:38;7.90;99.90
56374;DHT22;58212;47.034;7.376;2023-04-15T04:34:07;7.80;99.90
56374;DHT22;58212;47.034;7.376;2023-04-15T04:36:33;7.80;99.90
56374;DHT22;58212;47.034;7.376;2023-04-15T04:39:01;7.80;99.90
56374;DHT22;58212;47.034;7.376;2023-04-15T04:41:28;7.80;99.90
56374;DHT22;58212;47.034;7.376;2023-04-15T04:43:55;7.90;99.90
56374;DHT22;58212;47.034;7.376;2023-04-15T04:46:24;8.00;99.90
56374;DHT22;58212;47.034;7.376;2023-04-15T04:48:51;7.90;99.90
56374;DHT22;58212;47.034;7.376;2023-04-15T04:51:20;8.00;99.90
56374;DHT22;58212;47.034;7.376;2023-04-15T04:53:48;7.90;99.90
56374;DHT22;58212;47.034;7.376;2023-04-15T04:56:15;7.90;99.90
56374;DHT22;58212;47.034;7.376;2023-04-15T04:58:42;7.90;99.90
56374;DHT22;58212;47.034;7.376;2023-04-15T05:01:08;7.90;99.90
56374;DHT22;58212;47.034;7.376;2023-04-15T05:03:36;7.90;99.90
56374;DHT22;58212;47.034;7.376;2023-04-15T05:06:03;7.80;99.90
56374;DHT22;58212;47.034;7.376;2023-04-15T05:08:33;8.00;99.90
56374;DHT22;58212;47.034;7.376;2023-04-15T05:11:00;7.90;99.90
56374;DHT22;58212;47.034;7.376;2023-04-15T05:13:27;8.00;99.90
56374;DHT22;58212;47.034;7.376;2023-04-15T05:15:55;8.00;99.90
56374;DHT22;58212;47.034;7.376;2023-04-15T05:18:22;7.90;99.90
56374;DHT22;58212;47.034;7.376;2023-04-15T05:20:51;8.10;99.90
56374;DHT22;58212;47.034;7.376;2023-04-15T05:23:18;8.00;99.90
56374;DHT22;58212;47.034;7.376;2023-04-15T05:25:50;7.90;99.90
56374;DHT22;58212;47.034;7.376;2023-04-15T05:28:17;7.90;99.90
56374;DHT22;58212;47.034;7.376;2023-04-15T05:30:44;8.00;99.90
56374;DHT22;58212;47.034;7.376;2023-04-15T05:33:11;8.10;99.90
56374;DHT22;58212;47.034;7.376;2023-04-15T05:35:40;8.20;99.90
56374;DHT22;58212;47.034;7.376;2023-04-15T05:38:07;8.20;99.90
56374;DHT22;58212;47.034;7.376;2023-04-15T05:40:33;8.40;99.90
56374;DHT22;58212;47.034;7.376;2023-04-15T05:43:02;8.40;99.90
56374;DHT22;58212;47.034;7.376;2023-04-15T05:45:29;8.30;99.90
56374;DHT22;58212;47.034;7.376;2023-04-15T05:47:56;8.10;99.90
56374;DHT22;58212;47.034;7.376;2023-04-15T05:50:23;8.10;99.90
56374;DHT22;58212;47.034;7.376;2023-04-15T05:52:50;8.00;99.90
56374;DHT22;58212;47.034;7.376;2023-04-15T05:55:17;8.00;99.90
56374;DHT22;58212;47.034;7.376;2023-04-15T05:57:43;7.90;99.90
56374;DHT22;58212;47.034;7.376;2023-04-15T06:00:13;8.00;99.90
56374;DHT22;58212;47.034;7.376;2023-04-15T06:02:41;8.00;99.90
56374;DHT22;58212;47.034;7.376;2023-04-15T06:05:08;7.90;99.90
56374;DHT22;58212;47.034;7.376;2023-04-15T06:07:37;8.10;99.90
56374;DHT22;58212;47.034;7.376;2023-04-15T06:10:05;8.10;99.90
56374;DHT22;58212;47.034;7.376;2023-04-15T06:12:36;8.10;99.90
56374;DHT22;58212;47.034;7.376;2023-04-15T06:15:03;8.30;99.90
56374;DHT22;58212;47.034;7.376;2023-04-15T06:17:33;8.20;99.90
56374;DHT22;58212;47.034;7.376;2023-04-15T06:20:00;8.20;99.90
56374;DHT22;58212;47.034;7.376;2023-04-15T06:22:27;8.10;99.90
56374;DHT22;58212;47.034;7.376;2023-04-15T06:25:19;8.20;99.90
56374;DHT22;58212;47.034;7.376;2023-04-15T06:27:46;8.10;99.90
56374;DHT22;58212;47.034;7.376;2023-04-15T06:30:13;8.10;99.90
56374;DHT22;58212;47.034;7.376;2023-04-15T06:32:42;8.20;99.90
56374;DHT22;58212;47.034;7.376;2023-04-15T06:35:10;8.20;99.90
56374;DHT22;58212;47.034;7.376;2023-04-15T06:37:37;8.20;99.90
56374;DHT22;58212;47.034;7.376;2023-04-15T06:40:05;8.30;99.90
56374;DHT22;58212;47.034;7.376;2023-04-15T06:42:33;8.20;99.90
56374;DHT22;58212;47.034;7.376;2023-04-15T06:45:02;8.20;99.90
56374;DHT22;58212;47.034;7.376;2023-04-15T06:47:29;8.20;99.90
56374;DHT22;58212;47.034;7.376;2023-04-15T06:49:57;8.30;99.90
56374;DHT22;58212;47.034;7.376;2023-04-15T06:52:24;8.40;99.90
56374;DHT22;58212;47.034;7.376;2023-04-15T06:54:51;8.40;99.90
56374;DHT22;58212;47.034;7.376;2023-04-15T06:57:18;8.50;99.90
56374;DHT22;58212;47.034;7.376;2023-04-15T06:59:45;8.50;99.90
56374;DHT22;58212;47.034;7.376;2023-04-15T07:02:12;8.40;99.90
56374;DHT22;58212;47.034;7.376;2023-04-15T07:04:40;8.40;99.90
56374;DHT22;58212;47.034;7.376;2023-04-15T07:07:08;8.40;99.90
56374;DHT22;58212;47.034;7.376;2023-04-15T07:09:37;8.40;99.90
56374;DHT22;58212;47.034;7.376;2023-04-15T07:12:04;8.40;99.90
56374;DHT22;58212;47.034;7.376;2023-04-15T07:14:31;8.30;99.90
56374;DHT22;58212;47.034;7.376;2023-04-15T07:16:58;8.40;99.90
56374;DHT22;58212;47.034;7.376;2023-04-15T07:19:25;8.20;99.90
56374;DHT22;58212;47.034;7.376;2023-04-15T07:21:52;8.00;99.90
56374;DHT22;58212;47.034;7.376;2023-04-15T07:24:20;8.20;99.90
56374;DHT22;58212;47.034;7.376;2023-04-15T07:26:51;8.10;99.90
56374;DHT22;58212;47.034;7.376;2023-04-15T07:29:18;8.30;99.90
56374;DHT22;58212;47.034;7.376;2023-04-15T07:31:45;8.50;99.90
56374;DHT22;58212;47.034;7.376;2023-04-15T07:34:13;8.50;99.90
56374;DHT22;58212;47.034;7.376;2023-04-15T07:36:41;8.50;99.90
56374;DHT22;58212;47.034;7.376;2023-04-15T07:39:08;8.50;99.90
56374;DHT22;58212;47.034;7.376;2023-04-15T07:41:36;8.40;99.90
56374;DHT22;58212;47.034;7.376;2023-04-15T07:44:03;8.60;99.90
56374;DHT22;58212;47.034;7.376;2023-04-15T07:46:30;8.70;99.90
56374;DHT22;58212;47.034;7.376;2023-04-15T07:48:58;8.50;99.90
56374;DHT22;58212;47.034;7.376;2023-04-15T07:51:25;8.50;99.90
56374;DHT22;58212;47.034;7.376;2023-04-15T07:53:52;8.50;99.90
56374;DHT22;58212;47.034;7.376;2023-04-15T07:56:20;8.40;99.90
56374;DHT22;58212;47.034;7.376;2023-04-15T07:58:48;8.40;99.90
56374;DHT22;58212;47.034;7.376;2023-04-15T08:01:15;8.30;99.90
56374;DHT22;58212;47.034;7.376;2023-04-15T08:03:42;8.40;99.90
56374;DHT22;58212;47.034;7.376;2023-04-15T08:06:10;8.50;99.90
56374;DHT22;58212;47.034;7.376;2023-04-15T08:08:38;8.60;99.90
56374;DHT22;58212;47.034;7.376;2023-04-15T08:11:05;8.60;99.90
56374;DHT22;58212;47.034;7.376;2023-04-15T08:13:32;8.60;99.90
56374;DHT22;58212;47.034;7.376;2023-04-15T08:16:18;8.50;99.90
56374;DHT22;58212;47.034;7.376;2023-04-15T08:18:46;8.50;99.90
56374;DHT22;58212;47.034;7.376;2023-04-15T08:21:13;8.50;99.90
56374;DHT22;58212;47.034;7.376;2023-04-15T08:23:42;8.60;99.90
56374;DHT22;58212;47.034;7.376;2023-04-15T08:26:09;8.70;99.90
56374;DHT22;58212;47.034;7.376;2023-04-15T08:28:38;8.60;99.90
56374;DHT22;58212;47.034;7.376;2023-04-15T08:31:05;8.70;99.90
56374;DHT22;58212;47.034;7.376;2023-04-15T08:33:37;8.70;99.90
56374;DHT22;58212;47.034;7.376;2023-04-15T08:36:04;8.90;99.90
56374;DHT22;58212;47.034;7.376;2023-04-15T08:38:32;8.90;99.90
56374;DHT22;58212;47.034;7.376;2023-04-15T08:41:01;8.80;99.90
56374;DHT22;58212;47.034;7.376;2023-04-15T08:43:33;8.90;99.90
56374;DHT22;58212;47.034;7.376;2023-04-15T08:46:01;8.90;99.90
56374;DHT22;58212;47.034;7.376;2023-04-15T08:48:32;9.00;99.90
56374;DHT22;58212;47.034;7.376;2023-04-15T08:51:02;9.00;99.90
56374;DHT22;58212;47.034;7.376;2023-04-15T08:53:30;8.90;99.90
56374;DHT22;58212;47.034;7.376;2023-04-15T08:55:59;9.00;99.90
56374;DHT22;58212;47.034;7.376;2023-04-15T08:58:30;9.00;99.90
56374;DHT22;58212;47.034;7.376;2023-04-15T09:00:57;9.00;99.90
56374;DHT22;58212;47.034;7.376;2023-04-15T09:03:25;8.70;99.90
56374;DHT22;58212;47.034;7.376;2023-04-15T09:05:53;8.70;99.90
56374;DHT22;58212;47.034;7.376;2023-04-15T09:08:22;8.60;99.90
56374;DHT22;58212;47.034;7.376;2023-04-15T09:10:49;8.90;99.90
56374;DHT22;58212;47.034;7.376;2023-04-15T09:13:17;9.00;99.90
56374;DHT22;58212;47.034;7.376;2023-04-15T09:15:44;9.20;99.90
56374;DHT22;58212;47.034;7.376;2023-04-15T09:18:11;9.40;99.90
56374;DHT22;58212;47.034;7.376;2023-04-15T09:20:39;9.70;99.90
56374;DHT22;58212;47.034;7.376;2023-04-15T09:23:11;9.90;99.90
56374;DHT22;58212;47.034;7.376;2023-04-15T09:25:40;9.80;99.90
56374;DHT22;58212;47.034;7.376;2023-04-15T09:28:08;10.30;99.90
56374;DHT22;58212;47.034;7.376;2023-04-15T09:30:35;10.30;99.90
56374;DHT22;58212;47.034;7.376;2023-04-15T09:33:03;10.40;99.90
56374;DHT22;58212;47.034;7.376;2023-04-15T09:35:33;10.70;99.90
56374;DHT22;58212;47.034;7.376;2023-04-15T09:38:03;10.40;99.90
56374;DHT22;58212;47.034;7.376;2023-04-15T09:40:31;10.00;99.90
56374;DHT22;58212;47.034;7.376;2023-04-15T09:43:00;9.80;99.90
56374;DHT22;58212;47.034;7.376;2023-04-15T09:45:28;9.90;99.90
56374;DHT22;58212;47.034;7.376;2023-04-15T09:47:56;10.30;99.90
56374;DHT22;58212;47.034;7.376;2023-04-15T09:50:27;10.00;99.90
56374;DHT22;58212;47.034;7.376;2023-04-15T09:52:55;9.90;99.90
56374;DHT22;58212;47.034;7.376;2023-04-15T09:55:22;10.00;99.90
56374;DHT22;58212;47.034;7.376;2023-04-15T09:57:49;10.20;99.90
56374;DHT22;58212;47.034;7.376;2023-04-15T10:00:17;10.10;99.90
56374;DHT22;58212;47.034;7.376;2023-04-15T10:02:46;9.80;99.90
56374;DHT22;58212;47.034;7.376;2023-04-15T10:05:14;9.60;99.90
56374;DHT22;58212;47.034;7.376;2023-04-15T10:07:42;9.50;99.90
56374;DHT22;58212;47.034;7.376;2023-04-15T10:10:10;9.90;99.90
56374;DHT22;58212;47.034;7.376;2023-04-15T10:12:40;10.10;99.90
56374;DHT22;58212;47.034;7.376;2023-04-15T10:15:12;9.80;99.90
56374;DHT22;58212;47.034;7.376;2023-04-15T10:17:43;9.60;99.90
56374;DHT22;58212;47.034;7.376;2023-04-15T10:20:10;9.80;99.90
56374;DHT22;58212;47.034;7.376;2023-04-15T10:22:39;10.00;99.90
56374;DHT22;58212;47.034;7.376;2023-04-15T10:25:09;10.00;99.90
56374;DHT22;58212;47.034;7.376;2023-04-15T10:27:36;10.20;99.90
56374;DHT22;58212;47.034;7.376;2023-04-15T10:30:06;10.20;99.90
56374;DHT22;58212;47.034;7.376;2023-04-15T10:32:34;9.40;99.90
56374;DHT22;58212;47.034;7.376;2023-04-15T10:35:04;9.20;99.90
56374;DHT22;58212;47.034;7.376;2023-04-15T10:37:34;9.50;99.90
56374;DHT22;58212;47.034;7.376;2023-04-15T10:40:23;9.70;99.90
56374;DHT22;58212;47.034;7.376;2023-04-15T10:42:50;9.70;99.90
56374;DHT22;58212;47.034;7.376;2023-04-15T10:45:18;9.90;99.90
56374;DHT22;58212;47.034;7.376;2023-04-15T10:47:45;10.10;99.90
56374;DHT22;58212;47.034;7.376;2023-04-15T10:50:13;10.10;99.90
56374;DHT22;58212;47.034;7.376;2023-04-15T10:52:40;10.10;99.90
56374;DHT22;58212;47.034;7.376;2023-04-15T10:55:18;10.10;99.90
56374;DHT22;58212;47.034;7.376;2023-04-15T10:57:48;10.20;99.90
56374;DHT22;58212;47.034;7.376;2023-04-15T11:00:19;9.70;99.90
56374;DHT22;58212;47.034;7.376;2023-04-15T11:02:52;9.60;99.90
56374;DHT22;58212;47.034;7.376;2023-04-15T11:05:22;9.90;99.90
56374;DHT22;58212;47.034;7.376;2023-04-15T11:07:53;9.80;99.90
56374;DHT22;58212;47.034;7.376;2023-04-15T11:10:51;10.10;99.90
56374;DHT22;58212;47.034;7.376;2023-04-15T11:13:28;10.20;99.90
56374;DHT22;58212;47.034;7.376;2023-04-15T11:15:57;10.00;99.90
56374;DHT22;58212;47.034;7.376;2023-04-15T11:18:31;10.00;99.90
56374;DHT22;58212;47.034;7.376;2023-04-15T11:21:02;10.00;99.90
56374;DHT22;58212;47.034;7.376;2023-04-15T11:23:35;10.00;99.90
56374;DHT22;58212;47.034;7.376;2023-04-15T11:26:04;9.90;99.90
56374;DHT22;58212;47.034;7.376;2023-04-15T11:28:34;10.10;99.90
56374;DHT22;58212;47.034;7.376;2023-04-15T11:31:06;10.20;99.90
56374;DHT22;58212;47.034;7.376;2023-04-15T11:33:35;10.10;99.90
56374;DHT22;58212;47.034;7.376;2023-04-15T11:36:04;10.10;99.90
56374;DHT22;58212;47.034;7.376;2023-04-15T11:38:31;10.10;99.90
56374;DHT22;58212;47.034;7.376;2023-04-15T11:40:59;10.30;99.90
56374;DHT22;58212;47.034;7.376;2023-04-15T11:43:26;10.10;99.90
56374;DHT22;58212;47.034;7.376;2023-04-15T11:46:00;10.20;99.90
56374;DHT22;58212;47.034;7.376;2023-04-15T11:48:30;10.20;99.90
56374;DHT22;58212;47.034;7.376;2023-04-15T11:50:59;10.20;99.90
56374;DHT22;58212;47.034;7.376;2023-04-15T11:53:37;10.10;99.90
56374;DHT22;58212;47.034;7.376;2023-04-15T11:56:06;10.50;99.90
56374;DHT22;58212;47.034;7.376;2023-04-15T11:58:34;10.40;99.90
56374;DHT22;58212;47.034;7.376;2023-04-15T12:01:04;10.60;99.90
56374;DHT22;58212;47.034;7.376;2023-04-15T12:03:36;10.70;99.90
56374;DHT22;58212;47.034;7.376;2023-04-15T12:06:11;10.30;99.90
56374;DHT22;58212;47.034;7.376;2023-04-15T12:09:04;10.40;99.90
56374;DHT22;58212;47.034;7.376;2023-04-15T12:11:39;10.20;99.90
56374;DHT22;58212;47.034;7.376;2023-04-15T12:14:10;10.50;99.90
56374;DHT22;58212;47.034;7.376;2023-04-15T12:16:39;10.30;99.90
56374;DHT22;58212;47.034;7.376;2023-04-15T12:19:09;10.30;99.90
56374;DHT22;58212;47.034;7.376;2023-04-15T12:21:38;10.20;99.90
56374;DHT22;58212;47.034;7.376;2023-04-15T12:24:09;10.30;99.90
56374;DHT22;58212;47.034;7.376;2023-04-15T12:26:42;10.20;99.90
56374;DHT22;58212;47.034;7.376;2023-04-15T12:32:28;10.20;99.90
56374;DHT22;58212;47.034;7.376;2023-04-15T12:34:55;10.40;99.90
56374;DHT22;58212;47.034;7.376;2023-04-15T12:37:24;10.50;99.90
56374;DHT22;58212;47.034;7.376;2023-04-15T12:39:52;10.60;99.90
56374;DHT22;58212;47.034;7.376;2023-04-15T12:42:19;10.40;99.90
56374;DHT22;58212;47.034;7.376;2023-04-15T12:44:48;10.20;99.90
56374;DHT22;58212;47.034;7.376;2023-04-15T12:47:19;10.30;99.90
56374;DHT22;58212;47.034;7.376;2023-04-15T12:49:49;10.20;99.90
56374;DHT22;58212;47.034;7.376;2023-04-15T12:52:17;10.30;99.90
56374;DHT22;58212;47.034;7.376;2023-04-15T12:54:44;10.30;99.90
56374;DHT22;58212;47.034;7.376;2023-04-15T12:57:12;10.30;99.90
56374;DHT22;58212;47.034;7.376;2023-04-15T12:59:39;10.00;99.90
56374;DHT22;58212;47.034;7.376;2023-04-15T13:02:07;10.10;99.90
56374;DHT22;58212;47.034;7.376;2023-04-15T13:04:33;10.00;99.90
56374;DHT22;58212;47.034;7.376;2023-04-15T13:07:01;9.60;99.90
56374;DHT22;58212;47.034;7.376;2023-04-15T13:09:28;9.60;99.90
56374;DHT22;58212;47.034;7.376;2023-04-15T13:11:55;9.70;99.90
56374;DHT22;58212;47.034;7.376;2023-04-15T13:14:24;9.80;99.90
56374;DHT22;58212;47.034;7.376;2023-04-15T13:16:53;9.60;99.90
56374;DHT22;58212;47.034;7.376;2023-04-15T13:19:20;9.50;99.90
56374;DHT22;58212;47.034;7.376;2023-04-15T13:21:47;9.40;99.90
56374;DHT22;58212;47.034;7.376;2023-04-15T13:24:14;9.60;99.90
56374;DHT22;58212;47.034;7.376;2023-04-15T13:26:41;9.40;99.90
56374;DHT22;58212;47.034;7.376;2023-04-15T13:29:07;9.20;99.90
56374;DHT22;58212;47.034;7.376;2023-04-15T13:31:37;9.40;99.90
56374;DHT22;58212;47.034;7.376;2023-04-15T13:34:04;9.30;99.90
56374;DHT22;58212;47.034;7.376;2023-04-15T13:36:31;9.30;99.90
56374;DHT22;58212;47.034;7.376;2023-04-15T13:38:58;9.50;99.90
56374;DHT22;58212;47.034;7.376;2023-04-15T13:41:25;9.50;99.90
56374;DHT22;58212;47.034;7.376;2023-04-15T13:43:52;9.60;99.90
56374;DHT22;58212;47.034;7.376;2023-04-15T13:46:18;9.40;99.90
56374;DHT22;58212;47.034;7.376;2023-04-15T13:48:47;9.60;99.90
56374;DHT22;58212;47.034;7.376;2023-04-15T13:51:14;9.70;99.90
56374;DHT22;58212;47.034;7.376;2023-04-15T13:53:42;9.60;99.90
56374;DHT22;58212;47.034;7.376;2023-04-15T13:56:09;9.60;99.90
56374;DHT22;58212;47.034;7.376;2023-04-15T13:58:36;9.50;99.90
56374;DHT22;58212;47.034;7.376;2023-04-15T14:01:05;9.60;99.90
56374;DHT22;58212;47.034;7.376;2023-04-15T14:03:32;9.70;99.90
56374;DHT22;58212;47.034;7.376;2023-04-15T14:06:01;9.60;99.90
56374;DHT22;58212;47.034;7.376;2023-04-15T14:08:29;9.80;99.90
56374;DHT22;58212;47.034;7.376;2023-04-15T14:11:00;9.80;99.90
56374;DHT22;58212;47.034;7.376;2023-04-15T14:13:27;9.80;99.90
56374;DHT22;58212;47.034;7.376;2023-04-15T14:15:54;9.90;99.90
56374;DHT22;58212;47.034;7.376;2023-04-15T14:18:22;9.60;99.90
56374;DHT22;58212;47.034;7.376;2023-04-15T14:20:50;9.80;99.90
56374;DHT22;58212;47.034;7.376;2023-04-15T14:23:18;9.80;99.90
56374;DHT22;58212;47.034;7.376;2023-04-15T14:25:45;9.80;99.90
56374;DHT22;58212;47.034;7.376;2023-04-15T14:28:12;9.90;99.90
56374;DHT22;58212;47.034;7.376;2023-04-15T14:30:39;9.90;99.90
56374;DHT22;58212;47.034;7.376;2023-04-15T14:33:05;9.90;99.90
56374;DHT22;58212;47.034;7.376;2023-04-15T14:35:33;9.90;99.90
56374;DHT22;58212;47.034;7.376;2023-04-15T14:38:00;9.90;99.90
56374;DHT22;58212;47.034;7.376;2023-04-15T14:40:28;9.80;99.90
56374;DHT22;58212;47.034;7.376;2023-04-15T14:42:55;9.70;99.90
56374;DHT22;58212;47.034;7.376;2023-04-15T14:45:22;9.60;99.90
56374;DHT22;58212;47.034;7.376;2023-04-15T14:47:50;9.80;99.90
56374;DHT22;58212;47.034;7.376;2023-04-15T14:50:17;9.80;99.90
56374;DHT22;58212;47.034;7.376;2023-04-15T14:52:44;9.70;99.90
56374;DHT22;58212;47.034;7.376;2023-04-15T14:55:12;9.60;99.90
56374;DHT22;58212;47.034;7.376;2023-04-15T14:57:41;9.70;99.90
56374;DHT22;58212;47.034;7.376;2023-04-15T15:00:09;9.80;99.90
56374;DHT22;58212;47.034;7.376;2023-04-15T15:02:37;9.90;99.90
56374;DHT22;58212;47.034;7.376;2023-04-15T15:05:05;9.90;99.90
56374;DHT22;58212;47.034;7.376;2023-04-15T15:07:32;9.90;99.90
56374;DHT22;58212;47.034;7.376;2023-04-15T15:10:00;9.80;99.90
56374;DHT22;58212;47.034;7.376;2023-04-15T15:12:27;9.90;99.90
56374;DHT22;58212;47.034;7.376;2023-04-15T15:14:55;10.00;99.90
56374;DHT22;58212;47.034;7.376;2023-04-15T15:17:23;9.80;99.90
56374;DHT22;58212;47.034;7.376;2023-04-15T15:19:50;9.90;99.90
56374;DHT22;58212;47.034;7.376;2023-04-15T15:22:16;9.90;99.90
56374;DHT22;58212;47.034;7.376;2023-04-15T15:24:44;10.00;99.90
56374;DHT22;58212;47.034;7.376;2023-04-15T15:27:11;10.00;99.90
56374;DHT22;58212;47.034;7.376;2023-04-15T15:29:39;9.90;99.90
56374;DHT22;58212;47.034;7.376;2023-04-15T15:32:33;9.90;99.90
56374;DHT22;58212;47.034;7.376;2023-04-15T15:35:01;9.70;99.90
56374;DHT22;58212;47.034;7.376;2023-04-15T15:37:29;10.00;99.90
56374;DHT22;58212;47.034;7.376;2023-04-15T15:39:56;10.00;99.90
56374;DHT22;58212;47.034;7.376;2023-04-15T15:42:24;10.00;99.90
56374;DHT22;58212;47.034;7.376;2023-04-15T15:44:52;10.10;99.90
56374;DHT22;58212;47.034;7.376;2023-04-15T15:47:20;10.10;99.90
56374;DHT22;58212;47.034;7.376;2023-04-15T15:49:48;10.10;99.90
56374;DHT22;58212;47.034;7.376;2023-04-15T15:52:15;10.10;99.90
56374;DHT22;58212;47.034;7.376;2023-04-15T15:54:42;10.20;99.90